createdAt,value
2023-05-13T00:00:41.597Z,11.13
2023-05-13T00:02:43.617Z,19.07
2023-05-13T00:04:45.574Z,17.48
2023-05-13T00:06:47.489Z,20.27
2023-05-13T00:08:49.330Z,18.63
2023-05-13T00:10:51.487Z,20.27
2023-05-13T00:12:53.350Z,15.45
2023-05-13T00:14:55.173Z,21.30
2023-05-13T00:16:58.825Z,12.90
2023-05-13T00:19:00.761Z,12.93
2023-05-13T00:21:02.681Z,19.00
2023-05-13T00:23:04.611Z,15.75
2023-05-13T00:25:06.616Z,13.98
2023-05-13T00:27:08.782Z,19.20
2023-05-13T00:29:10.705Z,16.05
2023-05-13T00:31:12.687Z,19.58
2023-05-13T00:33:14.637Z,14.10
2023-05-13T00:35:16.561Z,16.83
2023-05-13T00:37:18.676Z,14.77
2023-05-13T00:39:20.499Z,18.70
2023-05-13T00:41:22.853Z,22.27
2023-05-13T00:43:24.724Z,25.20
2023-05-13T00:45:26.715Z,17.47
2023-05-13T00:47:28.735Z,18.10
2023-05-13T00:49:30.683Z,26.25
2023-05-13T00:51:35.274Z,16.98
2023-05-13T00:53:37.234Z,22.95
2023-05-13T00:55:45.901Z,15.43
2023-05-13T00:57:47.762Z,14.63
2023-05-13T00:59:49.639Z,23.98
2023-05-13T01:02:21.931Z,19.60
2023-05-13T01:04:41.192Z,24.42
2023-05-13T01:06:51.818Z,12.85
2023-05-13T01:09:07.790Z,16.60
2023-05-13T01:11:22.044Z,12.98
2023-05-13T01:13:25.113Z,16.83
2023-05-13T01:15:27.434Z,18.50
2023-05-13T01:17:33.368Z,16.20
2023-05-13T01:19:55.392Z,16.02
2023-05-13T01:21:57.257Z,16.70
2023-05-13T01:23:59.606Z,14.50
2023-05-13T01:26:01.499Z,15.68
2023-05-13T01:28:03.437Z,13.03
2023-05-13T01:30:05.977Z,15.40
2023-05-13T01:32:08.868Z,13.95
2023-05-13T01:34:11.541Z,20.52
2023-05-13T01:38:16.083Z,14.38
2023-05-13T01:40:31.223Z,15.30
2023-05-13T01:42:35.063Z,19.33
2023-05-13T01:44:36.955Z,28.83
2023-05-13T01:46:39.373Z,31.40
2023-05-13T01:48:41.402Z,21.27
2023-05-13T01:50:43.387Z,25.27
2023-05-13T01:52:45.262Z,18.90
2023-05-13T01:54:47.107Z,16.88
2023-05-13T01:56:48.994Z,15.03
2023-05-13T01:58:50.932Z,16.17
2023-05-13T02:00:52.789Z,18.42
2023-05-13T02:02:54.720Z,18.95
2023-05-13T02:04:56.626Z,21.75
2023-05-13T02:06:58.504Z,15.53
2023-05-13T02:09:00.359Z,24.17
2023-05-13T02:11:02.326Z,28.00
2023-05-13T02:13:04.153Z,18.92
2023-05-13T02:15:06.649Z,14.70
2023-05-13T02:17:08.472Z,22.92
2023-05-13T02:19:10.399Z,22.27
2023-05-13T02:21:12.236Z,17.00
2023-05-13T02:23:15.159Z,17.90
2023-05-13T02:25:17.023Z,19.35
2023-05-13T02:27:18.863Z,19.63
2023-05-13T02:29:20.863Z,19.00
2023-05-13T02:31:22.751Z,22.42
2023-05-13T02:33:24.617Z,16.40
2023-05-13T02:35:29.794Z,21.10
2023-05-13T02:37:31.662Z,12.00
2023-05-13T02:39:33.493Z,26.00
2023-05-13T02:41:35.408Z,14.03
2023-05-13T02:43:37.232Z,18.83
2023-05-13T02:45:40.500Z,15.83
2023-05-13T02:47:42.444Z,22.73
2023-05-13T02:49:44.297Z,17.10
2023-05-13T02:51:46.336Z,11.17
2023-05-13T02:53:48.279Z,17.15
2023-05-13T02:55:50.323Z,15.27
2023-05-13T02:57:52.145Z,18.58
2023-05-13T02:59:53.995Z,21.87
2023-05-13T03:01:55.852Z,19.80
2023-05-13T03:03:57.770Z,20.00
2023-05-13T03:05:59.622Z,15.85
2023-05-13T03:08:01.489Z,17.63
2023-05-13T03:10:03.387Z,18.20
2023-05-13T03:12:06.620Z,19.17
2023-05-13T03:14:08.433Z,14.73
2023-05-13T03:16:10.395Z,12.07
2023-05-13T03:18:12.240Z,13.93
2023-05-13T03:20:14.085Z,17.27
2023-05-13T03:22:15.945Z,13.43
2023-05-13T03:24:17.760Z,15.45
2023-05-13T03:26:20.085Z,16.27
2023-05-13T03:28:21.891Z,15.02
2023-05-13T03:30:23.825Z,13.33
2023-05-13T03:32:30.664Z,13.02
2023-05-13T03:34:33.387Z,16.90
2023-05-13T03:38:36.934Z,12.38
2023-05-13T03:40:38.771Z,11.60
2023-05-13T03:42:40.587Z,12.33
2023-05-13T03:44:42.431Z,10.80
2023-05-13T03:46:44.371Z,10.27
2023-05-13T03:48:46.235Z,12.50
2023-05-13T03:50:48.081Z,18.30
2023-05-13T03:52:49.951Z,18.90
2023-05-13T03:54:51.806Z,12.50
2023-05-13T03:56:53.741Z,15.52
2023-05-13T03:58:55.801Z,14.77
2023-05-13T04:00:57.670Z,13.75
2023-05-13T04:02:59.598Z,11.75
2023-05-13T04:05:01.471Z,17.13
2023-05-13T04:07:03.420Z,15.30
2023-05-13T04:09:05.872Z,10.75
2023-05-13T04:11:07.718Z,15.52
2023-05-13T04:13:09.553Z,21.73
2023-05-13T04:15:11.605Z,19.90
2023-05-13T04:17:13.461Z,15.50
2023-05-13T04:19:15.362Z,21.50
2023-05-13T04:21:17.292Z,15.95
2023-05-13T04:23:19.129Z,14.55
2023-05-13T04:25:20.981Z,20.37
2023-05-13T04:27:25.955Z,15.17
2023-05-13T04:29:27.819Z,13.80
2023-05-13T04:31:29.762Z,13.03
2023-05-13T04:33:31.636Z,14.80
2023-05-13T04:35:33.469Z,17.37
2023-05-13T04:37:35.280Z,23.20
2023-05-13T04:39:37.094Z,21.50
2023-05-13T04:41:38.937Z,15.03
2023-05-13T04:43:40.919Z,21.08
2023-05-13T04:45:42.695Z,16.25
2023-05-13T04:47:44.604Z,16.50
2023-05-13T04:49:46.480Z,21.77
2023-05-13T04:51:48.947Z,18.23
2023-05-13T04:53:51.215Z,15.85
2023-05-13T04:55:57.274Z,17.20
2023-05-13T04:57:59.106Z,26.08
2023-05-13T05:00:01.237Z,17.20
2023-05-13T05:02:03.109Z,12.48
2023-05-13T05:04:05.958Z,19.98
2023-05-13T05:06:07.939Z,16.60
2023-05-13T05:08:09.830Z,18.15
2023-05-13T05:10:11.687Z,24.63
2023-05-13T05:12:13.875Z,14.80
2023-05-13T05:14:15.797Z,15.18
2023-05-13T05:16:17.755Z,16.05
2023-05-13T05:18:19.650Z,14.43
2023-05-13T05:20:21.937Z,17.20
2023-05-13T05:22:23.910Z,20.05
2023-05-13T05:24:26.215Z,23.37
2023-05-13T05:26:28.075Z,16.70
2023-05-13T05:28:30.325Z,19.00
2023-05-13T05:30:39.417Z,14.50
2023-05-13T05:32:41.461Z,14.13
2023-05-13T05:34:43.348Z,17.63
2023-05-13T05:36:45.369Z,17.97
2023-05-13T05:38:47.482Z,19.65
2023-05-13T05:40:49.308Z,19.15
2023-05-13T05:42:51.131Z,15.47
2023-05-13T05:44:53.032Z,14.88
2023-05-13T05:46:55.452Z,18.27
2023-05-13T05:48:57.286Z,14.85
2023-05-13T05:50:59.110Z,26.37
2023-05-13T05:53:01.130Z,21.00
2023-05-13T05:55:03.619Z,20.38
2023-05-13T05:57:05.837Z,19.42
2023-05-13T05:59:07.703Z,17.40
2023-05-13T06:01:09.568Z,15.82
2023-05-13T06:03:11.664Z,13.30
2023-05-13T06:05:13.742Z,14.05
2023-05-13T06:07:15.697Z,20.40
2023-05-13T06:09:17.654Z,11.65
2023-05-13T06:11:19.484Z,12.85
2023-05-13T06:13:21.294Z,18.43
2023-05-13T06:15:23.274Z,15.93
2023-05-13T06:17:25.392Z,15.68
2023-05-13T06:19:27.261Z,15.57
2023-05-13T06:21:29.054Z,18.40
2023-05-13T06:23:30.949Z,21.67
2023-05-13T06:25:32.963Z,18.42
2023-05-13T06:27:34.781Z,19.02
2023-05-13T06:29:36.667Z,16.87
2023-05-13T06:31:38.518Z,23.92
2023-05-13T06:33:40.722Z,20.42
2023-05-13T06:35:43.183Z,18.30
2023-05-13T06:37:44.972Z,16.85
2023-05-13T06:39:46.792Z,20.73
2023-05-13T06:41:48.622Z,19.20
2023-05-13T06:43:50.465Z,21.23
2023-05-13T06:45:52.273Z,14.23
2023-05-13T06:47:54.269Z,16.40
2023-05-13T06:49:56.251Z,12.23
2023-05-13T06:51:58.051Z,21.17
2023-05-13T06:53:59.934Z,24.27
2023-05-13T06:56:01.764Z,12.32
2023-05-13T06:58:03.630Z,25.00
2023-05-13T07:00:06.015Z,19.07
2023-05-13T07:02:09.944Z,16.27
2023-05-13T07:04:12.548Z,17.25
2023-05-13T07:06:14.532Z,18.95
2023-05-13T07:08:18.167Z,11.17
2023-05-13T07:10:20.276Z,13.63
2023-05-13T07:12:22.345Z,16.45
2023-05-13T07:14:26.175Z,11.33
2023-05-13T07:16:28.067Z,10.98
2023-05-13T07:18:30.113Z,10.95
2023-05-13T07:20:32.134Z,14.07
2023-05-13T07:22:33.993Z,14.93
2023-05-13T07:24:35.828Z,10.48
2023-05-13T07:26:37.657Z,11.23
2023-05-13T07:28:39.440Z,13.10
2023-05-13T07:30:41.905Z,13.17
2023-05-13T07:32:43.931Z,11.13
2023-05-13T07:34:45.875Z,20.38
2023-05-13T07:36:47.804Z,21.80
2023-05-13T07:38:49.849Z,12.30
2023-05-13T07:40:51.727Z,12.45
2023-05-13T07:42:53.565Z,13.07
2023-05-13T07:44:55.894Z,11.97
2023-05-13T07:46:57.763Z,11.23
2023-05-13T07:48:59.754Z,11.48
2023-05-13T07:51:01.830Z,9.85
2023-05-13T07:53:03.786Z,15.55
2023-05-13T07:55:06.097Z,10.50
2023-05-13T07:57:08.302Z,10.60
2023-05-13T07:59:10.260Z,18.88
2023-05-13T08:01:12.097Z,14.88
2023-05-13T08:03:14.061Z,15.57
2023-05-13T08:05:16.038Z,13.77
2023-05-13T08:07:17.889Z,11.25
2023-05-13T08:09:19.767Z,8.33
2023-05-13T08:11:21.951Z,10.70
2023-05-13T08:13:23.895Z,12.10
2023-05-13T08:15:26.596Z,10.82
2023-05-13T08:19:30.177Z,13.88
2023-05-13T08:21:32.795Z,10.40
2023-05-13T08:23:44.729Z,8.50
2023-05-13T08:25:47.087Z,12.93
2023-05-13T08:27:48.924Z,9.73
2023-05-13T08:29:50.957Z,18.05
2023-05-13T08:31:53.786Z,9.98
2023-05-13T08:33:56.143Z,12.43
2023-05-13T08:35:59.133Z,9.70
2023-05-13T08:38:00.986Z,7.82
2023-05-13T08:40:04.449Z,14.57
2023-05-13T08:42:06.402Z,8.88
2023-05-13T08:44:08.231Z,11.48
2023-05-13T08:46:11.178Z,6.88
2023-05-13T08:48:16.468Z,7.88
2023-05-13T08:50:19.496Z,7.47
2023-05-13T08:52:22.620Z,6.88
2023-05-13T08:54:24.448Z,7.05
2023-05-13T08:56:29.142Z,9.07
2023-05-13T08:58:31.896Z,6.50
2023-05-13T09:00:34.832Z,5.97
2023-05-13T09:02:36.682Z,8.25
2023-05-13T09:04:39.209Z,7.28
2023-05-13T09:08:42.921Z,9.50
2023-05-13T09:10:44.758Z,7.75
2023-05-13T09:12:53.636Z,9.10
2023-05-13T09:14:55.428Z,10.85
2023-05-13T09:16:57.559Z,8.67
2023-05-13T09:19:00.436Z,12.40
2023-05-13T09:21:28.021Z,5.38
2023-05-13T09:23:29.852Z,8.80
2023-05-13T09:25:31.793Z,5.50
2023-05-13T09:27:38.347Z,8.80
2023-05-13T09:29:40.165Z,5.50
2023-05-13T09:31:42.418Z,9.17
2023-05-13T09:33:52.721Z,4.35
2023-05-13T09:35:54.952Z,7.55
2023-05-13T09:37:56.768Z,6.57
2023-05-13T09:39:58.589Z,8.77
2023-05-13T09:42:05.183Z,5.00
2023-05-13T09:44:09.296Z,5.82
2023-05-13T09:46:11.161Z,7.68
2023-05-13T09:48:14.432Z,8.10
2023-05-13T09:50:16.512Z,5.78
2023-05-13T09:52:18.552Z,4.80
2023-05-13T09:54:20.482Z,6.85
2023-05-13T09:56:24.009Z,4.88
2023-05-13T09:58:28.164Z,6.82
2023-05-13T10:00:33.132Z,4.65
2023-05-13T10:02:35.846Z,4.82
2023-05-13T10:04:37.719Z,16.23
2023-05-13T10:06:39.640Z,7.47
2023-05-13T10:08:41.515Z,5.65
2023-05-13T10:10:46.685Z,5.18
2023-05-13T10:12:48.547Z,4.53
2023-05-13T10:14:52.002Z,5.57
2023-05-13T10:16:53.945Z,21.83
2023-05-13T10:18:57.509Z,7.70
2023-05-13T10:20:59.328Z,7.28
2023-05-13T10:23:01.393Z,7.30
2023-05-13T10:25:04.085Z,4.65
2023-05-13T10:29:08.546Z,4.97
2023-05-13T10:31:10.375Z,5.45
2023-05-13T10:33:12.288Z,4.20
2023-05-13T10:35:15.836Z,5.68
2023-05-13T10:37:34.812Z,7.00
2023-05-13T10:39:56.574Z,8.77
2023-05-13T10:42:35.740Z,4.88
2023-05-13T10:44:37.622Z,4.35
2023-05-13T10:46:39.905Z,4.03
2023-05-13T10:48:49.779Z,7.43
2023-05-13T10:50:52.784Z,5.90
2023-05-13T10:52:58.633Z,12.02
2023-05-13T10:55:04.104Z,7.55
2023-05-13T10:57:06.467Z,4.68
2023-05-13T10:59:08.332Z,4.10
2023-05-13T11:01:44.221Z,4.18
2023-05-13T11:04:00.116Z,5.95
2023-05-13T11:06:15.007Z,10.55
2023-05-13T11:08:49.529Z,8.98
2023-05-13T11:10:54.999Z,10.00
2023-05-13T11:13:21.682Z,5.65
2023-05-13T11:15:23.925Z,4.38
2023-05-13T11:17:26.079Z,10.63
2023-05-13T11:19:48.405Z,3.42
2023-05-13T11:21:51.987Z,7.57
2023-05-13T11:23:57.837Z,10.15
2023-05-13T11:26:21.480Z,11.07
2023-05-13T11:29:03.643Z,8.20
2023-05-13T11:31:17.213Z,6.10
2023-05-13T11:33:19.064Z,7.80
2023-05-13T11:35:25.389Z,9.70
2023-05-13T11:37:27.193Z,5.50
2023-05-13T11:39:29.087Z,5.53
2023-05-13T11:41:34.181Z,13.93
2023-05-13T11:43:35.984Z,6.13
2023-05-13T11:45:38.976Z,6.35
2023-05-13T11:47:40.842Z,11.27
2023-05-13T11:49:46.655Z,6.18
2023-05-13T11:51:48.474Z,7.85
2023-05-13T11:53:50.346Z,4.30
2023-05-13T11:55:52.218Z,4.45
2023-05-13T11:57:54.328Z,5.88
2023-05-13T12:00:06.703Z,6.97
2023-05-13T12:02:08.688Z,9.40
2023-05-13T12:04:10.578Z,8.73
2023-05-13T12:06:12.364Z,6.07
2023-05-13T12:08:15.369Z,7.72
2023-05-13T12:10:17.242Z,9.15
2023-05-13T12:12:19.585Z,7.68
2023-05-13T12:14:21.739Z,4.22
2023-05-13T12:16:24.092Z,2.63
2023-05-13T12:18:25.979Z,5.40
2023-05-13T12:20:28.178Z,5.70
2023-05-13T12:22:30.007Z,5.70
2023-05-13T12:24:33.690Z,9.75
2023-05-13T12:26:35.476Z,8.30
2023-05-13T12:28:37.297Z,4.30
2023-05-13T12:31:01.297Z,8.10
2023-05-13T12:33:05.134Z,6.28
2023-05-13T12:35:15.334Z,4.90
2023-05-13T12:37:17.734Z,12.70
2023-05-13T12:39:20.597Z,7.55
2023-05-13T12:41:23.148Z,7.13
2023-05-13T12:45:30.705Z,5.07
2023-05-13T12:47:50.813Z,6.18
2023-05-13T12:49:53.988Z,4.90
2023-05-13T12:51:56.905Z,9.32
2023-05-13T12:53:58.907Z,6.38
2023-05-13T12:56:00.944Z,5.65
2023-05-13T12:58:03.920Z,8.32
2023-05-13T13:00:06.625Z,3.38
2023-05-13T13:04:11.741Z,9.30
2023-05-13T13:08:16.164Z,5.85
2023-05-13T13:10:18.084Z,4.13
2023-05-13T13:12:19.928Z,6.75
2023-05-13T13:14:23.925Z,8.20
2023-05-13T13:16:25.957Z,3.13
2023-05-13T13:18:28.103Z,4.97
2023-05-13T13:20:29.998Z,6.45
2023-05-13T13:22:32.196Z,10.13
2023-05-13T13:24:34.041Z,2.50
2023-05-13T13:26:36.287Z,6.15
2023-05-13T13:28:38.304Z,2.53
2023-05-13T13:30:46.358Z,5.43
2023-05-13T13:32:48.383Z,4.55
2023-05-13T13:34:50.739Z,6.22
2023-05-13T13:36:52.519Z,10.45
2023-05-13T13:38:54.590Z,10.52
2023-05-13T13:40:56.953Z,4.05
2023-05-13T13:45:02.438Z,3.10
2023-05-13T13:47:04.687Z,10.25
2023-05-13T13:49:22.756Z,4.45
2023-05-13T13:51:25.824Z,5.32
2023-05-13T13:53:28.240Z,2.92
2023-05-13T13:55:30.097Z,4.57
2023-05-13T13:57:31.892Z,4.43
2023-05-13T13:59:34.160Z,6.72
2023-05-13T14:01:36.330Z,4.57
2023-05-13T14:03:38.220Z,3.28
2023-05-13T14:05:40.200Z,3.40
2023-05-13T14:07:42.158Z,5.57
2023-05-13T14:09:44.098Z,4.07
2023-05-13T14:11:45.993Z,2.65
2023-05-13T14:13:47.834Z,9.43
2023-05-13T14:15:49.685Z,3.78
2023-05-13T14:17:51.614Z,3.65
2023-05-13T14:19:55.630Z,5.10
2023-05-13T14:21:57.717Z,5.90
2023-05-13T14:23:59.548Z,5.00
2023-05-13T14:26:01.395Z,5.13
2023-05-13T14:28:03.244Z,9.73
2023-05-13T14:30:06.637Z,10.55
2023-05-13T14:32:08.549Z,4.63
2023-05-13T14:34:10.373Z,5.05
2023-05-13T14:36:16.178Z,3.22
2023-05-13T14:38:18.241Z,5.88
2023-05-13T14:40:20.357Z,5.65
2023-05-13T14:42:22.406Z,8.98
2023-05-13T14:44:24.247Z,5.82
2023-05-13T14:46:26.146Z,5.45
2023-05-13T14:48:28.115Z,8.73
2023-05-13T14:50:29.925Z,4.82
2023-05-13T14:52:31.782Z,5.95
2023-05-13T14:54:35.827Z,9.95
2023-05-13T14:56:38.049Z,5.57
2023-05-13T14:58:41.077Z,6.07
2023-05-13T15:00:42.946Z,5.15
2023-05-13T15:02:44.917Z,6.80
2023-05-13T15:04:46.796Z,5.53
2023-05-13T15:06:48.648Z,5.10
2023-05-13T15:08:50.467Z,4.57
2023-05-13T15:10:52.322Z,7.07
2023-05-13T15:12:54.152Z,5.20
2023-05-13T15:14:56.102Z,13.32
2023-05-13T15:16:58.026Z,11.40
2023-05-13T15:18:59.917Z,10.57
2023-05-13T15:21:01.857Z,12.73
2023-05-13T15:23:03.666Z,7.50
2023-05-13T15:25:05.889Z,5.90
2023-05-13T15:27:07.741Z,5.25
2023-05-13T15:29:09.573Z,4.80
2023-05-13T15:31:11.410Z,4.47
2023-05-13T15:33:13.231Z,6.30
2023-05-13T15:35:15.937Z,10.20
2023-05-13T15:37:17.792Z,9.45
2023-05-13T15:39:19.595Z,6.97
2023-05-13T15:41:21.780Z,2.83
2023-05-13T15:43:23.630Z,5.93
2023-05-13T15:45:25.683Z,5.55
2023-05-13T15:47:27.561Z,6.18
2023-05-13T15:49:29.565Z,3.88
2023-05-13T15:51:31.977Z,8.82
2023-05-13T15:53:33.859Z,6.07
2023-05-13T15:55:37.478Z,7.22
2023-05-13T15:57:40.294Z,4.10
2023-05-13T15:59:42.109Z,6.47
2023-05-13T16:01:44.115Z,13.43
2023-05-13T16:03:46.010Z,8.95
2023-05-13T16:05:47.884Z,7.53
2023-05-13T16:07:49.718Z,4.60
2023-05-13T16:09:51.533Z,4.00
2023-05-13T16:11:53.437Z,5.32
2023-05-13T16:13:55.268Z,4.50
2023-05-13T16:15:57.120Z,8.18
2023-05-13T16:17:58.986Z,3.15
2023-05-13T16:20:00.907Z,4.10
2023-05-13T16:22:24.681Z,2.80
2023-05-13T16:24:26.589Z,6.47
2023-05-13T16:26:28.660Z,2.72
2023-05-13T16:28:30.651Z,2.97
2023-05-13T16:30:32.810Z,4.60
2023-05-13T16:32:37.835Z,4.10
2023-05-13T16:34:39.655Z,4.00
2023-05-13T16:36:41.438Z,4.50
2023-05-13T16:38:43.236Z,6.85
2023-05-13T16:40:45.068Z,3.97
2023-05-13T16:42:46.879Z,3.03
2023-05-13T16:44:48.768Z,5.78
2023-05-13T16:46:50.601Z,8.45
2023-05-13T16:48:52.449Z,4.53
2023-05-13T16:50:54.337Z,9.32
2023-05-13T16:52:57.126Z,6.10
2023-05-13T16:54:59.202Z,11.25
2023-05-13T16:57:01.246Z,4.03
2023-05-13T16:59:03.093Z,12.57
2023-05-13T17:01:04.969Z,9.52
2023-05-13T17:03:07.803Z,12.65
2023-05-13T17:05:09.924Z,4.68
2023-05-13T17:07:11.823Z,11.02
2023-05-13T17:09:13.704Z,10.88
2023-05-13T17:11:18.196Z,8.25
2023-05-13T17:13:20.015Z,7.53
2023-05-13T17:15:22.136Z,8.32
2023-05-13T17:17:23.964Z,4.88
2023-05-13T17:19:25.914Z,8.90
2023-05-13T17:21:27.806Z,16.90
2023-05-13T17:23:32.607Z,5.15
2023-05-13T17:25:34.454Z,8.38
2023-05-13T17:27:36.240Z,10.80
2023-05-13T17:29:38.142Z,8.18
2023-05-13T17:31:40.180Z,5.80
2023-05-13T17:33:42.066Z,5.63
2023-05-13T17:35:43.980Z,8.45
2023-05-13T17:37:45.824Z,7.43
2023-05-13T17:39:47.654Z,10.80
2023-05-13T17:41:49.447Z,3.42
2023-05-13T17:43:51.323Z,8.10
2023-05-13T17:45:53.148Z,6.32
2023-05-13T17:47:55.143Z,7.80
2023-05-13T17:49:57.041Z,5.65
2023-05-13T17:51:58.870Z,25.77
2023-05-13T17:54:00.710Z,3.97
2023-05-13T17:56:02.568Z,5.07
2023-05-13T17:58:04.444Z,7.45
2023-05-13T18:00:07.148Z,13.00
2023-05-13T18:02:09.152Z,14.45
2023-05-13T18:04:11.069Z,5.18
2023-05-13T18:06:13.083Z,7.20
2023-05-13T18:08:14.997Z,7.40
2023-05-13T18:10:16.823Z,6.30
2023-05-13T18:12:18.657Z,11.02
2023-05-13T18:14:20.463Z,6.68
2023-05-13T18:16:22.311Z,14.85
2023-05-13T18:18:24.285Z,17.67
2023-05-13T18:20:26.361Z,12.88
2023-05-13T18:22:28.140Z,6.32
2023-05-13T18:24:29.984Z,9.57
2023-05-13T18:26:31.839Z,10.15
2023-05-13T18:28:33.655Z,6.47
2023-05-13T18:30:35.507Z,13.15
2023-05-13T18:32:37.392Z,13.77
2023-05-13T18:34:39.215Z,8.70
2023-05-13T18:36:41.078Z,8.27
2023-05-13T18:38:43.088Z,6.90
2023-05-13T18:40:45.256Z,6.82
2023-05-13T18:42:47.071Z,14.50
2023-05-13T18:44:48.883Z,19.60
2023-05-13T18:46:50.924Z,9.83
2023-05-13T18:48:52.793Z,34.22
2023-05-13T18:50:54.600Z,14.65
2023-05-13T18:52:56.441Z,11.90
2023-05-13T18:54:58.282Z,9.73
2023-05-13T18:57:00.359Z,14.38
2023-05-13T18:59:02.273Z,14.55
2023-05-13T19:01:04.173Z,6.90
2023-05-13T19:03:06.427Z,24.58
2023-05-13T19:05:08.777Z,11.35
2023-05-13T19:07:11.301Z,8.95
2023-05-13T19:11:14.872Z,11.55
2023-05-13T19:13:19.798Z,5.72
2023-05-13T19:15:22.872Z,10.48
2023-05-13T19:17:24.766Z,9.30
2023-05-13T19:19:26.643Z,7.82
2023-05-13T19:21:28.501Z,12.73
2023-05-13T19:23:30.867Z,10.57
2023-05-13T19:25:32.707Z,16.70
2023-05-13T19:27:34.582Z,5.33
2023-05-13T19:29:36.512Z,8.40
2023-05-13T19:31:38.481Z,10.65
2023-05-13T19:33:40.452Z,8.05
2023-05-13T19:35:43.066Z,14.13
2023-05-13T19:39:46.652Z,10.68
2023-05-13T19:41:48.570Z,11.67
2023-05-13T19:43:50.511Z,8.13
2023-05-13T19:45:52.450Z,9.82
2023-05-13T19:47:54.880Z,9.55
2023-05-13T19:49:56.854Z,10.80
2023-05-13T19:51:58.748Z,13.30
2023-05-13T19:54:00.738Z,8.10
2023-05-13T19:56:02.657Z,10.63
2023-05-13T19:58:04.525Z,8.55
2023-05-13T20:00:09.331Z,11.73
2023-05-13T20:02:11.575Z,12.27
2023-05-13T20:04:13.437Z,8.35
2023-05-13T20:06:15.296Z,5.65
2023-05-13T20:08:17.158Z,7.70
2023-05-13T20:10:18.956Z,17.02
2023-05-13T20:12:21.519Z,13.88
2023-05-13T20:14:23.394Z,10.25
2023-05-13T20:16:25.674Z,9.98
2023-05-13T20:18:27.620Z,12.45
2023-05-13T20:20:29.555Z,7.68
2023-05-13T20:22:32.086Z,10.02
2023-05-13T20:24:33.894Z,13.38
2023-05-13T20:26:36.103Z,7.37
2023-05-13T20:28:38.003Z,7.97
2023-05-13T20:30:43.041Z,8.10
2023-05-13T20:32:44.987Z,9.60
2023-05-13T20:34:46.934Z,8.10
2023-05-13T20:36:48.886Z,12.95
2023-05-13T20:38:50.729Z,9.05
2023-05-13T20:40:52.540Z,8.87
2023-05-13T20:42:55.876Z,11.30
2023-05-13T20:44:57.723Z,10.25
2023-05-13T20:46:59.898Z,8.63
2023-05-13T20:49:01.720Z,9.77
2023-05-13T20:51:04.602Z,8.63
2023-05-13T20:53:06.429Z,6.63
2023-05-13T20:55:08.772Z,8.83
2023-05-13T20:57:10.640Z,8.48
2023-05-13T20:59:12.602Z,8.20
2023-05-13T21:01:14.556Z,8.05
2023-05-13T21:03:16.582Z,9.80
2023-05-13T21:05:18.660Z,5.90
2023-05-13T21:07:20.859Z,10.95
2023-05-13T21:09:22.691Z,12.65
2023-05-13T21:11:24.753Z,6.10
2023-05-13T21:13:26.692Z,6.70
2023-05-13T21:15:28.773Z,7.18
2023-05-13T21:17:30.887Z,13.38
2023-05-13T21:19:32.746Z,11.38
2023-05-13T21:21:34.590Z,8.80
2023-05-13T21:23:37.134Z,16.13
2023-05-13T21:25:39.295Z,9.63
2023-05-13T21:27:41.186Z,8.80
2023-05-13T21:29:43.029Z,9.82
2023-05-13T21:31:44.870Z,9.20
2023-05-13T21:33:46.743Z,14.10
2023-05-13T21:35:48.569Z,11.25
2023-05-13T21:37:52.364Z,11.67
2023-05-13T21:39:57.929Z,14.57
2023-05-13T21:42:00.737Z,8.50
2023-05-13T21:44:02.559Z,9.05
2023-05-13T21:46:06.548Z,6.90
2023-05-13T21:48:08.634Z,12.52
2023-05-13T21:50:10.939Z,8.13
2023-05-13T21:52:12.815Z,7.72
2023-05-13T21:54:14.844Z,9.73
2023-05-13T21:56:16.711Z,10.23
2023-05-13T21:58:19.401Z,18.07
2023-05-13T22:00:22.212Z,9.07
2023-05-13T22:02:24.492Z,10.88
2023-05-13T22:04:26.932Z,13.07
2023-05-13T22:06:28.898Z,12.30
2023-05-13T22:08:30.759Z,10.43
2023-05-13T22:10:32.583Z,15.77
2023-05-13T22:12:34.405Z,11.90
2023-05-13T22:14:36.242Z,13.00
2023-05-13T22:16:38.144Z,10.87
2023-05-13T22:18:40.998Z,10.25
2023-05-13T22:20:43.018Z,9.02
2023-05-13T22:22:44.827Z,6.93
2023-05-13T22:24:46.649Z,8.07
2023-05-13T22:26:48.492Z,8.60
2023-05-13T22:28:50.359Z,9.97
2023-05-13T22:30:52.219Z,15.30
2023-05-13T22:32:54.268Z,8.50
2023-05-13T22:34:56.168Z,13.13
2023-05-13T22:36:58.021Z,11.93
2023-05-13T22:38:59.820Z,16.20
2023-05-13T22:41:01.649Z,16.90
2023-05-13T22:43:03.501Z,11.03
2023-05-13T22:45:05.746Z,15.32
2023-05-13T22:47:08.565Z,10.93
2023-05-13T22:49:12.285Z,17.20
2023-05-13T22:51:14.127Z,15.20
2023-05-13T22:53:16.654Z,9.37
2023-05-13T22:55:18.491Z,14.35
2023-05-13T22:57:20.397Z,13.07
2023-05-13T22:59:22.250Z,10.95
2023-05-13T23:01:24.047Z,12.15
2023-05-13T23:03:25.909Z,11.37
2023-05-13T23:05:27.802Z,16.95
2023-05-13T23:07:29.651Z,14.18
2023-05-13T23:09:31.478Z,13.68
2023-05-13T23:11:35.710Z,21.80
2023-05-13T23:13:37.672Z,21.15
2023-05-13T23:15:39.504Z,17.92
2023-05-13T23:17:41.741Z,20.00
2023-05-13T23:19:43.660Z,12.70
2023-05-13T23:21:45.507Z,15.13
2023-05-13T23:23:49.420Z,21.77
2023-05-13T23:25:51.611Z,21.95
2023-05-13T23:27:53.423Z,11.57
2023-05-13T23:29:55.295Z,20.03
2023-05-13T23:31:57.256Z,16.13
2023-05-13T23:33:59.152Z,20.50
2023-05-13T23:36:01.093Z,14.33
2023-05-13T23:38:02.931Z,14.88
2023-05-13T23:40:05.562Z,15.10
2023-05-13T23:42:07.549Z,18.50
2023-05-13T23:44:09.371Z,17.10
2023-05-13T23:46:11.308Z,20.52
2023-05-13T23:48:13.206Z,15.00
2023-05-13T23:50:15.052Z,17.83
2023-05-13T23:52:16.964Z,31.47
2023-05-13T23:54:18.768Z,17.55
2023-05-13T23:56:21.595Z,14.40
2023-05-13T23:58:23.419Z,12.27
